Time;durP1;ratioP1;P1;durP2;ratioP2;P2;SDS_P1;SDS_P2;PMS_P1;PMS_P2;Temp;Humidity;BMP_temperature;BMP_pressure;BME280_temperature;BME280_humidity;BME280_pressure;Samples;Min_cycle;Max_cycle;Signal;HPM_P1;HPM_P2
2021/04/23 00:01:30;;;;;;;;;;;;;;;4.34;54.89;101239.92;1700149;84;20837;-71
2021/04/23 00:03:58;;;;;;;;;;;;;;;4.36;54.85;101234.83;1705326;82;20143;-71
2021/04/23 00:06:37;;;;;;;;;;;;;;;4.36;54.91;101231.86;1702298;83;20453;-71
2021/04/23 00:09:13;;;;;;;;;;;;;;;4.27;54.83;101235.09;1677090;85;20278;-71
2021/04/23 00:11:47;;;;;;;;;;;;;;;4.19;54.94;101229.38;1690709;84;20250;-71
2021/04/23 00:14:15;;;;;;;;;;;;;;;4.16;55.14;101234.47;1665625;86;20263;-71
2021/04/23 00:16:42;;;;;;;;;;;;;;;4.13;55.28;101229.29;1664539;85;20415;-71
2021/04/23 00:19:11;;;;;;;;;;;;;;;4.14;55.28;101233.58;1698664;84;20273;-71
2021/04/23 00:21:37;;;;;;;;;;;;;;;4.09;55.36;101226.22;1688214;84;20267;-71
2021/04/23 00:24:04;;;;;;;;;;;;;;;4.06;55.42;101231.28;1688485;84;20429;-71
2021/04/23 00:26:33;;;;;;;;;;;;;;;4.01;55.46;101232.47;1698939;84;20453;-71
2021/04/23 00:29:00;;;;;;;;;;;;;;;3.98;55.63;101234.95;1700962;84;20282;-71
2021/04/23 00:31:26;;;;;;;;;;;;;;;3.98;55.64;101233.27;1701096;84;20469;-71
2021/04/23 00:33:52;;;;;;;;;;;;;;;3.97;55.83;101230.67;1682408;84;20305;-71
2021/04/23 00:36:18;;;;;;;;;;;;;;;3.95;55.79;101233.61;1692033;84;20428;-71
2021/04/23 00:38:44;;;;;;;;;;;;;;;3.94;55.88;101233.16;1700546;84;20359;-72
2021/04/23 00:41:16;;;;;;;;;;;;;;;3.92;56.00;101233.13;1701099;84;20514;-72
2021/04/23 00:43:46;;;;;;;;;;;;;;;3.92;56.00;101234.83;1687207;84;20473;-72
2021/04/23 00:46:13;;;;;;;;;;;;;;;3.91;56.12;101235.66;1687335;84;20582;-72
2021/04/23 00:48:44;;;;;;;;;;;;;;;3.90;56.10;101236.49;1697837;84;20564;-72
2021/04/23 00:51:16;;;;;;;;;;;;;;;3.89;56.17;101239.88;1691904;84;21018;-72
2021/04/23 00:53:47;;;;;;;;;;;;;;;3.85;56.28;101235.53;1699550;84;20296;-72
2021/04/23 00:56:16;;;;;;;;;;;;;;;3.84;56.42;101236.36;1700988;84;20281;-72
2021/04/23 00:58:43;;;;;;;;;;;;;;;3.84;56.34;101244.03;1694706;84;20256;-71
2021/04/23 01:01:16;;;;;;;;;;;;;;;3.82;56.47;101243.14;1696347;84;20580;-71
2021/04/23 01:03:42;;;;;;;;;;;;;;;3.83;56.48;101244.45;1688750;83;20296;-71
2021/04/23 01:06:14;;;;;;;;;;;;;;;3.80;56.64;101241.83;1702094;82;20316;-71
2021/04/23 01:08:44;;;;;;;;;;;;;;;3.82;56.73;101241.86;1707500;82;20258;-71
2021/04/23 01:11:11;;;;;;;;;;;;;;;3.83;56.80;101238.47;1695775;82;20259;-71
2021/04/23 01:13:38;;;;;;;;;;;;;;;3.83;56.94;101235.50;1708128;84;20481;-71
2021/04/23 01:16:13;;;;;;;;;;;;;;;3.84;56.95;101237.64;1701103;84;20278;-71
2021/04/23 01:18:40;;;;;;;;;;;;;;;3.79;56.97;101238.82;1703896;84;20171;-71
2021/04/23 01:21:14;;;;;;;;;;;;;;;3.76;57.17;101243.87;1697301;84;20447;-71
2021/04/23 01:23:45;;;;;;;;;;;;;;;3.76;57.03;101241.72;1700897;84;20264;-71
2021/04/23 01:26:13;;;;;;;;;;;;;;;3.70;57.10;101242.45;1696283;84;20163;-72
2021/04/23 01:28:40;;;;;;;;;;;;;;;3.68;57.25;101243.25;1700309;84;20286;-72
2021/04/23 01:31:15;;;;;;;;;;;;;;;3.66;57.53;101244.08;1696019;84;20183;-72
2021/04/23 01:33:45;;;;;;;;;;;;;;;3.65;57.36;101241.08;1683382;83;20252;-72
2021/04/23 01:36:12;;;;;;;;;;;;;;;3.63;57.48;101248.30;1707648;83;20268;-72
2021/04/23 01:38:42;;;;;;;;;;;;;;;3.62;57.65;101245.29;1697995;84;20264;-71
2021/04/23 01:41:09;;;;;;;;;;;;;;;3.61;57.82;101240.59;1685618;84;20245;-71
2021/04/23 01:43:47;;;;;;;;;;;;;;;3.61;57.72;101235.89;1706724;84;20442;-71
2021/04/23 01:46:13;;;;;;;;;;;;;;;3.62;57.97;101242.31;1698008;84;20258;-71
2021/04/23 01:48:52;;;;;;;;;;;;;;;3.64;58.05;101241.04;1695750;84;20149;-71
2021/04/23 01:51:18;;;;;;;;;;;;;;;3.64;58.17;101241.91;1694906;84;20300;-71
2021/04/23 01:53:51;;;;;;;;;;;;;;;3.67;58.16;101248.78;1684904;84;20288;-71
2021/04/23 01:56:17;;;;;;;;;;;;;;;3.67;58.20;101244.95;1705798;84;20807;-71
2021/04/23 01:58:43;;;;;;;;;;;;;;;3.64;58.19;101248.30;1699142;84;20380;-71
2021/04/23 02:01:11;;;;;;;;;;;;;;;3.61;58.17;101250.82;1689604;84;20280;-71
2021/04/23 02:03:38;;;;;;;;;;;;;;;3.56;58.23;101241.31;1699180;84;20344;-71
2021/04/23 02:06:05;;;;;;;;;;;;;;;3.51;58.42;101242.91;1705739;84;20290;-71
2021/04/23 02:08:32;;;;;;;;;;;;;;;3.50;58.47;101247.16;1699457;84;20292;-71
2021/04/23 02:11:04;;;;;;;;;;;;;;;3.48;58.59;101245.39;1697681;84;20227;-71
2021/04/23 02:13:31;;;;;;;;;;;;;;;3.47;58.75;101238.55;1705143;84;20348;-71
2021/04/23 02:15:58;;;;;;;;;;;;;;;3.45;58.76;101246.19;1706467;84;20279;-71
2021/04/23 02:18:25;;;;;;;;;;;;;;;3.47;58.86;101244.52;1688822;84;20326;-71
2021/04/23 02:21:04;;;;;;;;;;;;;;;3.45;58.88;101242.34;1704927;84;20288;-71
2021/04/23 02:23:30;;;;;;;;;;;;;;;3.43;58.88;101244.42;1699080;84;20312;-71
2021/04/23 02:26:00;;;;;;;;;;;;;;;3.41;59.09;101249.91;1698739;83;20196;-71
2021/04/23 02:28:26;;;;;;;;;;;;;;;3.39;59.06;101240.93;1696896;84;20345;-71
2021/04/23 02:31:01;;;;;;;;;;;;;;;3.42;59.21;101242.69;1705799;84;20290;-71
2021/04/23 02:33:30;;;;;;;;;;;;;;;3.43;59.35;101243.14;1706408;83;20268;-71
2021/04/23 02:35:57;;;;;;;;;;;;;;;3.43;59.34;101246.56;1706437;82;20304;-71
2021/04/23 02:38:24;;;;;;;;;;;;;;;3.40;59.43;101245.21;1683881;84;20305;-71
2021/04/23 02:40:51;;;;;;;;;;;;;;;3.39;59.40;101246.45;1699094;84;20546;-71
2021/04/23 02:43:23;;;;;;;;;;;;;;;3.38;59.46;101248.56;1701939;84;20290;-71
2021/04/23 02:45:51;;;;;;;;;;;;;;;3.34;59.42;101248.91;1703467;84;20284;-71
2021/04/23 02:48:19;;;;;;;;;;;;;;;3.30;59.62;101247.97;1706816;84;20493;-71
2021/04/23 02:50:48;;;;;;;;;;;;;;;3.32;59.75;101250.55;1707015;84;20336;-71
2021/04/23 02:53:16;;;;;;;;;;;;;;;3.32;59.86;101254.39;1687286;84;20329;-71
2021/04/23 02:55:43;;;;;;;;;;;;;;;3.32;59.87;101255.25;1695195;84;20312;-71
2021/04/23 02:58:14;;;;;;;;;;;;;;;3.32;59.75;101254.39;1700911;84;20165;-71
2021/04/23 03:00:44;;;;;;;;;;;;;;;3.28;60.06;101257.29;1681100;84;20289;-71
2021/04/23 03:03:11;;;;;;;;;;;;;;;3.28;60.03;101258.56;1687419;83;20266;-71
2021/04/23 03:05:39;;;;;;;;;;;;;;;3.28;60.06;101253.87;1676518;85;20274;-71
2021/04/23 03:08:06;;;;;;;;;;;;;;;3.26;60.07;101262.78;1679917;84;20262;-71
2021/04/23 03:10:38;;;;;;;;;;;;;;;3.21;60.02;101261.80;1699985;83;20262;-71
2021/04/23 03:13:06;;;;;;;;;;;;;;;3.18;60.26;101256.62;1676512;84;20295;-71
2021/04/23 03:15:33;;;;;;;;;;;;;;;3.17;60.35;101255.30;1686698;84;20264;-71
2021/04/23 03:18:00;;;;;;;;;;;;;;;3.15;60.38;101258.23;1678406;84;20254;-71
2021/04/23 03:20:28;;;;;;;;;;;;;;;3.16;60.46;101260.83;1676288;84;20299;-71
2021/04/23 03:22:55;;;;;;;;;;;;;;;3.17;60.36;101261.69;1672808;84;20313;-71
2021/04/23 03:25:24;;;;;;;;;;;;;;;3.16;60.37;101260.83;1667728;84;20163;-71
2021/04/23 03:27:49;;;;;;;;;;;;;;;3.17;60.74;101265.11;1678417;84;20298;-71
2021/04/23 03:30:19;;;;;;;;;;;;;;;3.18;60.74;101264.28;1674831;84;20153;-71
2021/04/23 03:32:45;;;;;;;;;;;;;;;3.19;60.73;101266.01;1663638;84;20466;-71
2021/04/23 03:35:12;;;;;;;;;;;;;;;3.19;60.43;101266.42;1678681;84;20638;-71
2021/04/23 03:37:39;;;;;;;;;;;;;;;3.16;60.28;101268.48;1675133;84;20172;-71
2021/04/23 03:40:08;;;;;;;;;;;;;;;3.15;60.77;101269.73;1646579;84;20310;-71
2021/04/23 03:42:34;;;;;;;;;;;;;;;3.13;60.98;101270.97;1678790;84;20211;-71
2021/04/23 03:45:10;;;;;;;;;;;;;;;3.14;60.94;101271.42;1669093;84;20262;-71
2021/04/23 03:47:36;;;;;;;;;;;;;;;3.11;60.87;101282.88;1678130;84;20297;-71
2021/04/23 03:50:02;;;;;;;;;;;;;;;3.09;61.03;101280.69;1647432;85;20197;-71
2021/04/23 03:52:29;;;;;;;;;;;;;;;3.08;61.24;101281.52;1675192;84;20294;-71
2021/04/23 03:54:55;;;;;;;;;;;;;;;3.11;61.21;101287.98;1677589;84;20241;-71
2021/04/23 03:57:21;;;;;;;;;;;;;;;3.15;61.41;101285.06;1677163;84;20289;-71
2021/04/23 03:59:47;;;;;;;;;;;;;;;3.17;61.43;101280.44;1667755;84;20220;-71
2021/04/23 04:02:13;;;;;;;;;;;;;;;3.20;61.47;101289.46;1674987;84;20645;-71
2021/04/23 04:04:40;;;;;;;;;;;;;;;3.22;61.44;101289.50;1664163;84;20301;-71
2021/04/23 04:07:06;;;;;;;;;;;;;;;3.23;61.47;101293.37;1677786;84;20274;-71
2021/04/23 04:09:32;;;;;;;;;;;;;;;3.22;61.50;101287.80;1680084;84;20224;-71
2021/04/23 04:11:58;;;;;;;;;;;;;;;3.24;61.68;101297.66;1674171;84;20474;-71
2021/04/23 04:14:24;;;;;;;;;;;;;;;3.30;61.74;101295.66;1664213;84;20885;-71
2021/04/23 04:16:50;;;;;;;;;;;;;;;3.35;61.72;101299.61;1673502;84;20290;-71
2021/04/23 04:19:16;;;;;;;;;;;;;;;3.39;61.80;101303.97;1668336;84;20323;-71
2021/04/23 04:21:42;;;;;;;;;;;;;;;3.43;61.89;101303.22;1706405;84;20278;-71
2021/04/23 04:24:09;;;;;;;;;;;;;;;3.48;61.87;101308.03;1692065;84;20307;-71
2021/04/23 04:26:35;;;;;;;;;;;;;;;3.53;62.00;101303.89;1694772;84;20307;-71
2021/04/23 04:29:02;;;;;;;;;;;;;;;3.59;62.02;101311.70;1695997;84;20276;-71
2021/04/23 04:31:28;;;;;;;;;;;;;;;3.62;62.01;101310.08;1707464;84;20203;-71
2021/04/23 04:33:54;;;;;;;;;;;;;;;3.64;61.94;101312.23;1704185;83;20288;-71
2021/04/23 04:36:20;;;;;;;;;;;;;;;3.67;62.07;101313.99;1698177;84;20320;-71
2021/04/23 04:38:47;;;;;;;;;;;;;;;3.73;62.18;101311.99;1697381;84;20651;-71
2021/04/23 04:41:14;;;;;;;;;;;;;;;3.76;62.09;101321.02;1704462;84;20488;-71
2021/04/23 04:43:42;;;;;;;;;;;;;;;3.76;61.96;101319.73;1706761;84;33331;-71
2021/04/23 04:46:09;;;;;;;;;;;;;;;3.78;62.14;101319.36;1704812;82;20274;-71
2021/04/23 04:48:35;;;;;;;;;;;;;;;3.81;62.23;101315.17;1710062;82;20246;-71
2021/04/23 04:51:03;;;;;;;;;;;;;;;3.86;62.31;101313.59;1708855;82;20167;-71
2021/04/23 04:53:29;;;;;;;;;;;;;;;3.92;62.27;101318.84;1700825;82;20254;-71
2021/04/23 04:55:58;;;;;;;;;;;;;;;3.97;62.12;101316.38;1700482;82;20252;-71
2021/04/23 04:58:27;;;;;;;;;;;;;;;4.03;62.32;101316.52;1707108;82;20263;-71
2021/04/23 05:00:54;;;;;;;;;;;;;;;4.12;62.25;101318.00;1699755;82;20270;-71
2021/04/23 05:03:21;;;;;;;;;;;;;;;4.24;62.57;101322.48;1699955;82;20300;-72
2021/04/23 05:05:47;;;;;;;;;;;;;;;4.40;62.64;101312.15;1704191;82;20157;-74
2021/04/23 05:08:13;;;;;;;;;;;;;;;4.69;62.94;101316.53;1696926;83;20263;-74
2021/04/23 05:10:39;;;;;;;;;;;;;;;5.11;62.98;101322.88;1714789;82;20283;-74
2021/04/23 05:13:05;;;;;;;;;;;;;;;5.70;62.96;101320.41;1716909;82;20291;-74
2021/04/23 05:15:31;;;;;;;;;;;;;;;6.30;62.87;101323.80;1697375;82;20266;-74
2021/04/23 05:18:00;;;;;;;;;;;;;;;6.82;62.83;101329.53;1701438;82;20293;-74
2021/04/23 05:20:26;;;;;;;;;;;;;;;7.46;62.83;101324.11;1705964;82;20187;-74
2021/04/23 05:22:52;;;;;;;;;;;;;;;8.03;62.37;101326.63;1707481;82;20284;-74
2021/04/23 05:25:23;;;;;;;;;;;;;;;8.44;62.10;101321.69;1699580;82;20432;-74
2021/04/23 05:27:50;;;;;;;;;;;;;;;8.79;61.84;101324.40;1717568;82;20275;-74
2021/04/23 05:30:19;;;;;;;;;;;;;;;9.07;61.51;101326.58;1713504;82;20168;-75
2021/04/23 05:32:45;;;;;;;;;;;;;;;9.38;61.58;101326.16;1719101;82;20189;-75
2021/04/23 05:35:14;;;;;;;;;;;;;;;9.77;61.52;101326.14;1714379;82;20268;-71
2021/04/23 05:37:40;;;;;;;;;;;;;;;10.20;61.55;101329.94;1713038;83;20168;-71
2021/04/23 05:40:08;;;;;;;;;;;;;;;10.54;61.48;101337.97;1706956;83;397991;-72
2021/04/23 05:42:34;;;;;;;;;;;;;;;10.74;61.15;101337.88;1713888;83;20266;-72
2021/04/23 05:45:00;;;;;;;;;;;;;;;10.74;60.94;101338.31;1706100;83;20299;-71
2021/04/23 05:47:26;;;;;;;;;;;;;;;10.93;61.12;101332.14;1680376;83;20883;-71
2021/04/23 05:49:52;;;;;;;;;;;;;;;11.16;61.24;101332.00;1680435;85;20292;-74
2021/04/23 05:52:18;;;;;;;;;;;;;;;11.45;61.02;101339.09;1690044;84;20251;-72
2021/04/23 05:54:45;;;;;;;;;;;;;;;11.63;60.72;101330.74;1701467;84;20259;-75
2021/04/23 05:57:11;;;;;;;;;;;;;;;11.70;60.63;101338.88;1685172;83;20288;-75
2021/04/23 05:59:37;;;;;;;;;;;;;;;11.65;60.38;101335.03;1690130;83;20187;-75
2021/04/23 06:02:04;;;;;;;;;;;;;;;11.81;60.49;101344.42;1670685;84;20258;-73
2021/04/23 06:04:30;;;;;;;;;;;;;;;12.08;60.49;101357.52;1673790;84;20262;-73
2021/04/23 06:06:55;;;;;;;;;;;;;;;12.13;60.17;101355.74;1661169;84;20296;-73
2021/04/23 06:09:21;;;;;;;;;;;;;;;12.15;59.52;101355.73;1645592;85;20234;-73
2021/04/23 06:11:47;;;;;;;;;;;;;;;11.67;59.50;101353.16;1674326;84;20244;-73
2021/04/23 06:14:13;;;;;;;;;;;;;;;11.52;59.67;101361.91;1704086;82;20231;-79
2021/04/23 06:16:39;;;;;;;;;;;;;;;11.35;59.80;101361.21;1706559;82;20293;-73
2021/04/23 06:19:05;;;;;;;;;;;;;;;11.57;60.31;101366.63;1706100;84;20191;-74
2021/04/23 06:21:31;;;;;;;;;;;;;;;11.58;60.05;101365.31;1702346;82;20268;-73
2021/04/23 06:23:57;;;;;;;;;;;;;;;11.57;59.83;101363.59;1711393;82;20254;-73
2021/04/23 06:26:23;;;;;;;;;;;;;;;11.81;60.24;101363.00;1713130;82;20245;-73
2021/04/23 06:28:49;;;;;;;;;;;;;;;11.96;59.91;101363.30;1705105;82;20216;-73
2021/04/23 06:31:15;;;;;;;;;;;;;;;11.85;59.60;101369.44;1705026;82;20215;-74
2021/04/23 06:33:47;;;;;;;;;;;;;;;11.70;59.54;101369.97;1712368;82;20260;-73
2021/04/23 06:36:09;;;;;;;;;;;;;;;11.50;59.40;101368.40;1680448;84;20143;-73
2021/04/23 06:38:35;;;;;;;;;;;;;;;11.18;59.34;101369.09;1699126;82;20318;-74
2021/04/23 06:41:02;;;;;;;;;;;;;;;10.87;59.46;101383.52;1705487;82;20252;-73
2021/04/23 06:43:28;;;;;;;;;;;;;;;10.43;59.30;101386.27;1711036;82;20155;-73
2021/04/23 06:45:53;;;;;;;;;;;;;;;10.06;59.51;101388.50;1706107;82;20230;-73
2021/04/23 06:48:20;;;;;;;;;;;;;;;9.79;59.59;101379.95;1708526;82;20315;-72
2021/04/23 06:50:46;;;;;;;;;;;;;;;9.58;59.57;101378.22;1702545;83;20259;-73
2021/04/23 06:53:12;;;;;;;;;;;;;;;9.48;59.77;101381.66;1707743;82;20285;-72
2021/04/23 06:55:39;;;;;;;;;;;;;;;9.42;59.72;101382.08;1709785;82;20258;-73
2021/04/23 06:58:05;;;;;;;;;;;;;;;9.40;59.88;101386.38;1707877;82;20250;-72
2021/04/23 07:00:34;;;;;;;;;;;;;;;9.40;59.78;101381.22;1700905;82;20246;-73
2021/04/23 07:03:01;;;;;;;;;;;;;;;9.39;59.74;101380.78;1705480;82;20245;-73
2021/04/23 07:05:27;;;;;;;;;;;;;;;9.38;59.58;101379.92;1700775;82;20266;-73
2021/04/23 07:07:53;;;;;;;;;;;;;;;9.33;59.67;101382.10;1703442;82;20259;-73
2021/04/23 07:10:22;;;;;;;;;;;;;;;9.33;59.66;101373.93;1705172;83;20269;-73
2021/04/23 07:12:49;;;;;;;;;;;;;;;9.29;59.66;101396.30;1697370;84;20193;-73
2021/04/23 07:15:18;;;;;;;;;;;;;;;9.33;59.87;101387.27;1698328;84;20259;-72
2021/04/23 07:17:46;;;;;;;;;;;;;;;9.44;59.64;101387.67;1708032;83;20165;-73
2021/04/23 07:20:13;;;;;;;;;;;;;;;9.46;59.51;101390.27;1694509;83;20250;-73
2021/04/23 07:22:40;;;;;;;;;;;;;;;9.59;59.90;101393.28;1687520;83;20281;-72
2021/04/23 07:25:07;;;;;;;;;;;;;;;9.77;59.85;101391.14;1700624;83;20202;-73
2021/04/23 07:27:36;;;;;;;;;;;;;;;10.18;59.87;101401.41;1707423;82;20250;-73
2021/04/23 07:30:12;;;;;;;;;;;;;;;10.59;59.94;101403.47;1694412;83;20265;-73
2021/04/23 07:32:38;;;;;;;;;;;;;;;11.14;60.04;101396.72;1691447;83;20179;-72
2021/04/23 07:35:05;;;;;;;;;;;;;;;11.64;59.61;101396.79;1702807;83;20278;-73
2021/04/23 07:37:31;;;;;;;;;;;;;;;11.92;59.54;101402.20;1700293;83;20273;-73
2021/04/23 07:39:59;;;;;;;;;;;;;;;12.31;59.60;101406.55;1703255;82;20270;-73
2021/04/23 07:42:25;;;;;;;;;;;;;;;12.58;59.18;101410.12;1703023;82;20163;-73
2021/04/23 07:44:51;;;;;;;;;;;;;;;12.53;58.79;101411.05;1706403;82;20718;-72
2021/04/23 07:47:17;;;;;;;;;;;;;;;12.54;59.16;101404.54;1708422;82;20178;-72
2021/04/23 07:49:46;;;;;;;;;;;;;;;12.62;58.98;101415.27;1708465;82;20206;-72
2021/04/23 07:52:10;;;;;;;;;;;;;;;12.53;58.93;101424.88;1709773;82;20158;-73
2021/04/23 07:54:36;;;;;;;;;;;;;;;12.57;59.19;101434.34;1705781;82;20309;-73
2021/04/23 07:57:03;;;;;;;;;;;;;;;12.85;59.25;101440.08;1704857;82;20248;-74
2021/04/23 07:59:29;;;;;;;;;;;;;;;13.20;58.85;101436.17;1703389;82;20294;-72
2021/04/23 08:01:56;;;;;;;;;;;;;;;13.18;58.50;101433.59;1700637;82;20280;-72
2021/04/23 08:04:24;;;;;;;;;;;;;;;12.95;58.44;101435.63;1704400;82;20266;-73
2021/04/23 08:06:50;;;;;;;;;;;;;;;12.69;58.38;101448.91;1705300;82;20193;-71
2021/04/23 08:09:17;;;;;;;;;;;;;;;12.40;58.17;101438.88;1705385;82;20321;-72
2021/04/23 08:11:43;;;;;;;;;;;;;;;12.30;58.67;101438.55;1706746;82;20254;-72
2021/04/23 08:14:09;;;;;;;;;;;;;;;12.32;58.47;101433.34;1682154;82;20294;-73
2021/04/23 08:16:35;;;;;;;;;;;;;;;12.15;58.39;101436.95;1711277;82;20208;-72
2021/04/23 08:19:01;;;;;;;;;;;;;;;12.15;58.95;101436.95;1708618;82;20175;-72
2021/04/23 08:21:28;;;;;;;;;;;;;;;12.13;58.52;101432.22;1704534;82;20270;-72
2021/04/23 08:23:54;;;;;;;;;;;;;;;11.99;58.40;101439.27;1702287;83;20274;-72
2021/04/23 08:26:22;;;;;;;;;;;;;;;12.02;58.63;101437.94;1709478;82;20249;-72
2021/04/23 08:28:48;;;;;;;;;;;;;;;11.91;58.26;101435.91;1700328;82;20258;-73
2021/04/23 08:31:14;;;;;;;;;;;;;;;11.67;58.28;101442.53;1701790;82;20256;-72
2021/04/23 08:33:40;;;;;;;;;;;;;;;11.56;58.30;101433.11;1698706;83;20250;-73
2021/04/23 08:36:06;;;;;;;;;;;;;;;11.65;58.37;101426.14;1696704;83;20459;-73
2021/04/23 08:38:32;;;;;;;;;;;;;;;11.58;58.19;101433.09;1708119;83;20274;-72
2021/04/23 08:40:59;;;;;;;;;;;;;;;11.50;58.22;101432.29;1700445;82;20735;-72
2021/04/23 08:43:25;;;;;;;;;;;;;;;11.55;58.25;101425.34;1700488;83;20291;-72
2021/04/23 08:45:55;;;;;;;;;;;;;;;12.10;58.50;101422.32;1708473;82;20266;-73
2021/04/23 08:48:22;;;;;;;;;;;;;;;12.95;58.18;101434.77;1694006;83;20214;-72
2021/04/23 08:50:49;;;;;;;;;;;;;;;13.59;58.37;101429.52;1702144;83;20289;-73
2021/04/23 08:53:17;;;;;;;;;;;;;;;13.66;57.98;101428.55;1699452;83;20296;-72
2021/04/23 08:55:43;;;;;;;;;;;;;;;13.94;58.14;101430.27;1700024;83;20175;-73
2021/04/23 08:58:13;;;;;;;;;;;;;;;13.93;58.21;101432.89;1702267;83;20171;-72
2021/04/23 09:00:40;;;;;;;;;;;;;;;13.72;58.13;101428.45;1702670;83;20294;-73
2021/04/23 09:03:08;;;;;;;;;;;;;;;14.08;58.38;101424.35;1713890;82;20202;-73
2021/04/23 09:05:35;;;;;;;;;;;;;;;14.41;58.22;101424.22;1674772;84;20271;-72
2021/04/23 09:08:04;;;;;;;;;;;;;;;14.78;58.22;101422.17;1681307;84;20183;-72
2021/04/23 09:10:31;;;;;;;;;;;;;;;14.53;57.90;101421.39;1665666;84;20287;-72
2021/04/23 09:13:14;;;;;;;;;;;;;;;14.12;57.99;101414.75;1707886;82;20246;-72
2021/04/23 09:15:42;;;;;;;;;;;;;;;13.67;57.86;101409.47;1708677;82;20255;-73
2021/04/23 09:18:14;;;;;;;;;;;;;;;13.34;57.57;101408.71;1707742;82;20466;-73
2021/04/23 09:20:42;;;;;;;;;;;;;;;13.10;57.49;101406.84;1707114;82;20193;-72
2021/04/23 09:23:14;;;;;;;;;;;;;;;13.03;57.64;101411.70;1708007;82;20183;-72
2021/04/23 09:25:47;;;;;;;;;;;;;;;13.01;57.46;101403.51;1709843;82;20788;-73
2021/04/23 09:28:36;;;;;;;;;;;;;;;12.92;57.01;101405.81;1661379;84;20205;-73
2021/04/23 09:31:24;;;;;;;;;;;;;;;12.78;56.60;101413.78;1674360;84;20291;-72
2021/04/23 09:33:55;;;;;;;;;;;;;;;12.50;56.53;101414.53;1700702;83;20550;-72
2021/04/23 09:36:26;;;;;;;;;;;;;;;12.34;56.64;101414.73;1707605;82;20163;-72
2021/04/23 09:39:07;;;;;;;;;;;;;;;12.21;56.54;101414.86;1673057;84;20294;-73
2021/04/23 09:41:33;;;;;;;;;;;;;;;12.18;56.37;101414.89;1680755;84;20268;-71
2021/04/23 09:44:00;;;;;;;;;;;;;;;12.14;56.26;101417.53;1675230;84;20250;-72
2021/04/23 09:46:37;;;;;;;;;;;;;;;12.10;56.21;101413.24;1674058;83;20759;-72
2021/04/23 09:49:18;;;;;;;;;;;;;;;12.10;56.04;101402.87;1708839;82;20166;-72
2021/04/23 09:51:45;;;;;;;;;;;;;;;12.18;56.10;101406.25;1683106;82;20462;-73
2021/04/23 09:54:25;;;;;;;;;;;;;;;12.34;55.74;101415.59;1710484;82;20512;-72
2021/04/23 09:56:53;;;;;;;;;;;;;;;12.29;55.53;101401.82;1699343;83;20184;-72
2021/04/23 09:59:27;;;;;;;;;;;;;;;12.29;55.42;101410.90;1698094;82;20266;-72
2021/04/23 10:01:58;;;;;;;;;;;;;;;12.33;55.38;101413.02;1702969;83;20266;-73
2021/04/23 10:04:36;;;;;;;;;;;;;;;12.40;55.30;101412.08;1669606;83;20895;-72
2021/04/23 10:07:13;;;;;;;;;;;;;;;12.39;55.06;101401.28;1704286;82;20253;-72
2021/04/23 10:09:49;;;;;;;;;;;;;;;12.23;55.03;101409.66;1667730;84;20539;-71
2021/04/23 10:12:30;;;;;;;;;;;;;;;12.01;55.10;101405.12;1652289;84;20295;-72
2021/04/23 10:14:57;;;;;;;;;;;;;;;11.87;55.27;101405.27;1693581;83;20276;-73
2021/04/23 10:17:23;;;;;;;;;;;;;;;11.89;55.44;101397.48;1697563;83;20259;-73
2021/04/23 10:19:50;;;;;;;;;;;;;;;12.00;55.56;101399.51;1695522;83;20637;-72
2021/04/23 10:22:16;;;;;;;;;;;;;;;12.08;55.38;101396.84;1695783;83;20176;-72
2021/04/23 10:24:43;;;;;;;;;;;;;;;12.12;55.33;101385.14;1698014;82;20273;-72
2021/04/23 10:27:09;;;;;;;;;;;;;;;12.14;55.01;101391.16;1698286;83;20256;-72
2021/04/23 10:29:36;;;;;;;;;;;;;;;12.05;54.99;101383.91;1698699;83;20564;-73
2021/04/23 10:32:05;;;;;;;;;;;;;;;12.00;55.01;101382.66;1701434;83;20270;-72
2021/04/23 10:34:33;;;;;;;;;;;;;;;12.06;55.06;101387.78;1692551;83;20550;-73
2021/04/23 10:36:59;;;;;;;;;;;;;;;12.18;55.02;101395.88;1702006;83;20263;-73
2021/04/23 10:39:26;;;;;;;;;;;;;;;12.23;54.99;101382.00;1696395;83;20253;-73
2021/04/23 10:41:52;;;;;;;;;;;;;;;12.20;54.61;101387.22;1697220;83;20243;-73
2021/04/23 10:44:22;;;;;;;;;;;;;;;12.16;54.37;101382.94;1640019;83;5000858;-73
2021/04/23 10:46:51;;;;;;;;;;;;;;;12.11;54.13;101383.86;1656406;84;20841;-72
2021/04/23 10:49:17;;;;;;;;;;;;;;;12.15;54.30;101386.41;1646270;85;20285;-72
2021/04/23 10:51:44;;;;;;;;;;;;;;;12.34;54.35;101384.91;1643527;85;20445;-72
2021/04/23 10:54:16;;;;;;;;;;;;;;;12.51;54.05;101373.88;1643466;85;20500;-72
2021/04/23 10:56:52;;;;;;;;;;;;;;;12.55;53.80;101385.50;1650803;84;20800;-72
2021/04/23 10:59:26;;;;;;;;;;;;;;;12.53;53.87;101380.77;1669150;84;20285;-73
2021/04/23 11:01:56;;;;;;;;;;;;;;;12.57;53.60;101372.08;1643922;85;20202;-72
2021/04/23 11:04:22;;;;;;;;;;;;;;;12.45;53.31;101376.58;1632250;86;20309;-71
2021/04/23 11:06:53;;;;;;;;;;;;;;;12.33;53.19;101372.39;1667499;84;20769;-72
2021/04/23 11:09:22;;;;;;;;;;;;;;;12.26;53.30;101382.41;1667043;84;20269;-73
2021/04/23 11:12:10;;;;;;;;;;;;;;;12.20;53.39;101374.25;1674156;84;20273;-78
2021/04/23 11:14:38;;;;;;;;;;;;;;;12.08;53.22;101385.18;1670986;84;20273;-71
2021/04/23 11:17:20;;;;;;;;;;;;;;;11.84;53.07;101404.44;1682004;84;20271;-72
2021/04/23 11:19:50;;;;;;;;;;;;;;;11.65;53.15;101428.30;1670814;84;20897;-72
2021/04/23 11:22:26;;;;;;;;;;;;;;;11.35;53.01;101446.66;1680386;84;20295;-72
2021/04/23 11:25:12;;;;;;;;;;;;;;;10.96;53.13;101444.69;1654873;85;20568;-72
2021/04/23 11:27:41;;;;;;;;;;;;;;;10.55;53.34;101463.81;1658776;85;20476;-71
2021/04/23 11:30:08;;;;;;;;;;;;;;;10.25;53.66;101467.34;1630155;85;20270;-71
2021/04/23 11:32:35;;;;;;;;;;;;;;;10.08;53.87;101464.30;1645952;85;20286;-71
2021/04/23 11:35:11;;;;;;;;;;;;;;;9.99;53.98;101463.01;1678994;84;20268;-71
2021/04/23 11:37:46;;;;;;;;;;;;;;;9.90;53.75;101449.23;1650897;85;20271;-72
2021/04/23 11:40:19;;;;;;;;;;;;;;;9.89;53.83;101452.67;1682620;84;20190;-72
2021/04/23 11:42:48;;;;;;;;;;;;;;;9.85;53.73;101445.81;1673637;84;20280;-72
2021/04/23 11:45:32;;;;;;;;;;;;;;;9.80;53.78;101446.24;1668687;84;20255;-72
2021/04/23 11:48:08;;;;;;;;;;;;;;;9.81;54.03;101449.25;1674615;84;20262;-72
2021/04/23 11:50:39;;;;;;;;;;;;;;;9.95;54.32;101439.75;1680446;84;20560;-72
2021/04/23 11:53:11;;;;;;;;;;;;;;;10.10;54.28;101432.43;1654106;85;20282;-72
2021/04/23 11:55:40;;;;;;;;;;;;;;;10.27;54.16;101431.16;1669328;84;20262;-72
2021/04/23 11:58:12;;;;;;;;;;;;;;;10.39;54.05;101440.61;1679417;84;20301;-72
2021/04/23 12:00:40;;;;;;;;;;;;;;;10.54;54.24;101439.25;1646281;85;20288;-71
2021/04/23 12:03:10;;;;;;;;;;;;;;;10.68;53.90;101419.38;1647266;85;20489;-72
2021/04/23 12:05:39;;;;;;;;;;;;;;;10.83;53.90;101428.81;1677626;84;20292;-72
2021/04/23 12:08:16;;;;;;;;;;;;;;;10.94;53.60;101432.19;1678876;84;20835;-72
2021/04/23 12:10:50;;;;;;;;;;;;;;;10.98;53.50;101433.03;1671550;84;20285;-72
2021/04/23 12:13:19;;;;;;;;;;;;;;;10.98;53.34;101436.48;1677814;84;20279;-72
2021/04/23 12:15:47;;;;;;;;;;;;;;;10.94;53.21;101439.52;1653322;85;20266;-72
2021/04/23 12:18:13;;;;;;;;;;;;;;;10.90;53.26;101447.33;1664816;85;20277;-72
2021/04/23 12:20:42;;;;;;;;;;;;;;;10.90;53.26;101441.72;1648649;85;20304;-73
2021/04/23 12:23:10;;;;;;;;;;;;;;;10.90;53.13;101435.69;1641009;85;20279;-72
2021/04/23 12:25:42;;;;;;;;;;;;;;;10.99;53.26;101435.62;1645004;85;20284;-72
2021/04/23 12:28:33;;;;;;;;;;;;;;;11.09;53.13;101433.41;1671122;84;20776;-72
2021/04/23 12:31:09;;;;;;;;;;;;;;;11.12;52.95;101436.42;1645683;85;20305;-72
2021/04/23 12:33:44;;;;;;;;;;;;;;;11.14;52.96;101438.57;1635780;85;20258;-71
2021/04/23 12:36:17;;;;;;;;;;;;;;;11.24;53.10;101438.52;1653684;85;20295;-74
2021/04/23 12:38:46;;;;;;;;;;;;;;;11.30;52.90;101428.99;1654754;85;20278;-72
2021/04/23 12:41:18;;;;;;;;;;;;;;;11.32;53.01;101434.59;1657116;85;20250;-71
2021/04/23 12:43:46;;;;;;;;;;;;;;;11.42;53.14;101435.39;1641858;85;20308;-72
2021/04/23 12:46:30;;;;;;;;;;;;;;;11.53;53.05;101437.45;1650404;85;20269;-72
2021/04/23 12:49:12;;;;;;;;;;;;;;;11.65;53.15;101428.30;1644838;85;20311;-72